Time;durP1;ratioP1;P1;durP2;ratioP2;P2;SDS_P1;SDS_P2;PMS_P1;PMS_P2;Temp;Humidity;BMP_temperature;BMP_pressure;BME280_temperature;BME280_humidity;BME280_pressure;Samples;Min_cycle;Max_cycle;Signal;HPM_P1;HPM_P2
2021/12/27 00:00:23;;;;;;;40.22;22.95;;;;;;;-1.43;81.14;97797.34;6185426;23;19997;-90
2021/12/27 00:02:51;;;;;;;43.55;24.92;;;;;;;-1.35;80.92;97807.59;6158521;23;20016;-91
2021/12/27 00:05:17;;;;;;;40.72;23.98;;;;;;;-1.38;80.96;97802.78;6158450;23;20016;-92
2021/12/27 00:07:44;;;;;;;38.97;23.92;;;;;;;-1.17;80.54;97833.22;6186545;23;20001;-91
2021/12/27 00:10:10;;;;;;;38.70;23.55;;;;;;;-1.27;80.63;97814.47;6136549;23;20033;-93
2021/12/27 00:12:36;;;;;;;41.78;23.35;;;;;;;-1.24;80.67;97817.50;6160415;23;20013;-90
2021/12/27 00:15:02;;;;;;;41.40;22.60;;;;;;;-1.20;81.26;97820.53;6160282;23;20001;-89
2021/12/27 00:17:28;;;;;;;39.20;23.08;;;;;;;-1.07;80.65;97844.13;6160528;23;20005;-91
2021/12/27 00:19:55;;;;;;;43.63;24.05;;;;;;;-1.38;81.56;97783.66;6135533;23;20090;-94
2021/12/27 00:22:21;;;;;;;38.75;22.38;;;;;;;-1.08;80.50;97842.50;6135941;23;20016;-91
2021/12/27 00:24:47;;;;;;;38.63;23.33;;;;;;;-1.00;81.25;97843.09;6159661;23;20001;-89
2021/12/27 00:27:17;;;;;;;40.63;23.92;;;;;;;-1.13;80.77;97831.81;6160237;23;20020;-91
2021/12/27 00:29:42;;;;;;;40.35;23.13;;;;;;;-1.15;81.10;97825.97;6160018;23;20001;-93
2021/12/27 00:32:08;;;;;;;40.22;24.23;;;;;;;-1.02;80.65;97839.06;6160052;23;20088;-92
2021/12/27 00:34:36;;;;;;;45.08;23.30;;;;;;;-1.29;81.36;97795.56;6159931;23;19993;-91
2021/12/27 00:37:05;;;;;;;40.95;23.88;;;;;;;-1.08;80.92;97826.78;6135691;23;20013;-90
2021/12/27 00:39:31;;;;;;;44.40;23.55;;;;;;;-1.16;81.19;97814.72;6160045;23;20076;-91
2021/12/27 00:41:56;;;;;;;38.97;22.02;;;;;;;-1.52;81.05;97743.59;6186207;23;20025;-90
2021/12/27 00:44:22;;;;;;;40.50;23.13;;;;;;;-1.21;80.92;97797.97;6135490;23;20489;-88
2021/12/27 00:46:47;;;;;;;45.83;23.50;;;;;;;-1.24;80.86;97778.22;6159882;23;20431;-91
2021/12/27 00:49:13;;;;;;;37.50;22.33;;;;;;;-1.00;81.45;97818.72;6160352;23;20096;-92
2021/12/27 00:51:38;;;;;;;37.83;23.27;;;;;;;-1.11;81.60;97793.13;6160210;23;20044;-90
2021/12/27 00:54:03;;;;;;;39.50;22.45;;;;;;;-1.42;81.32;97738.75;6160320;23;20062;-91
2021/12/27 00:56:29;;;;;;;44.50;24.85;;;;;;;-1.16;81.01;97788.53;6134969;23;20016;-92
2021/12/27 00:58:54;;;;;;;34.33;22.45;;;;;;;-1.10;81.01;97789.53;6159926;23;20031;-90
2021/12/27 01:01:20;;;;;;;36.63;23.05;;;;;;;-0.96;81.58;97809.50;6135147;23;20005;-89
2021/12/27 01:03:45;;;;;;;37.38;23.02;;;;;;;-1.36;81.24;97737.16;6159597;23;20080;-89
2021/12/27 01:06:10;;;;;;;44.45;23.40;;;;;;;-1.07;80.91;97789.13;6159749;23;20005;-91
2021/12/27 01:08:37;;;;;;;41.95;23.65;;;;;;;-1.20;81.34;97755.09;6159629;23;20438;-91
2021/12/27 01:13:59;;;;;;;42.35;23.00;;;;;;;-1.21;81.29;97748.25;6186317;23;20397;-90
2021/12/27 01:16:24;;;;;;;43.88;24.38;;;;;;;-1.21;81.10;97746.44;6159941;23;20128;-90
2021/12/27 01:18:50;;;;;;;44.20;23.80;;;;;;;-1.21;81.03;97750.84;6134896;23;20430;-92
2021/12/27 01:21:19;;;;;;;42.65;24.30;;;;;;;-1.18;81.05;97753.88;6160080;23;20483;-91
2021/12/27 01:23:45;;;;;;;41.88;22.63;;;;;;;-1.06;81.39;97770.59;6159813;23;20017;-92
2021/12/27 01:26:11;;;;;;;43.63;25.02;;;;;;;-0.91;81.20;97793.97;6159544;23;20005;-90
2021/12/27 01:28:37;;;;;;;40.08;22.50;;;;;;;-0.99;81.05;97778.47;6159398;23;20039;-92
2021/12/27 01:31:03;;;;;;;37.80;22.95;;;;;;;-1.03;81.24;97764.97;6135175;23;20009;-89
2021/12/27 01:33:29;;;;;;;41.40;23.00;;;;;;;-1.12;81.61;97754.91;6159445;23;20057;-93
2021/12/27 01:35:54;;;;;;;41.08;24.73;;;;;;;-1.07;81.09;97750.66;6159718;23;20016;-91
2021/12/27 01:38:20;;;;;;;37.17;22.35;;;;;;;-1.06;81.73;97748.84;6159574;23;20064;-92
2021/12/27 01:40:48;;;;;;;42.47;25.13;;;;;;;-1.05;81.51;97747.84;6159247;23;20500;-91
2021/12/27 01:43:24;;;;;;;40.75;24.08;;;;;;;-0.96;81.19;97759.75;6159392;23;20079;-91
2021/12/27 01:45:52;;;;;;;41.30;24.15;;;;;;;-0.82;81.11;97784.91;6159765;23;20092;-91
2021/12/27 01:48:23;;;;;;;36.17;22.67;;;;;;;-1.06;81.40;97738.38;6159563;23;20005;-93
2021/12/27 01:50:50;;;;;;;39.75;24.67;;;;;;;-1.10;81.23;97737.16;6159511;23;20011;-90
2021/12/27 01:53:17;;;;;;;37.05;21.67;;;;;;;-0.95;81.22;97758.72;6159472;23;20421;-90
2021/12/27 01:55:43;;;;;;;41.63;22.88;;;;;;;-0.96;81.27;97749.25;6159865;23;20377;-90
2021/12/27 01:58:09;;;;;;;34.58;22.73;;;;;;;-1.21;81.25;97708.97;6159830;23;20421;-91
2021/12/27 02:00:37;;;;;;;39.42;22.05;;;;;;;-0.77;81.70;97777.25;6135512;23;20511;-91
2021/12/27 02:03:03;;;;;;;40.53;22.85;;;;;;;-0.75;81.00;97783.09;6160321;23;20007;-90
2021/12/27 02:05:29;;;;;;;33.75;21.65;;;;;;;-1.03;80.86;97738.78;6159908;23;20008;-91
2021/12/27 02:07:55;;;;;;;38.65;22.27;;;;;;;-1.03;81.45;97730.94;6159397;23;20005;-92
2021/12/27 02:10:20;;;;;;;41.13;23.30;;;;;;;-0.88;81.60;97741.19;6159460;23;20041;-90
2021/12/27 02:12:46;;;;;;;38.97;23.33;;;;;;;-1.08;81.68;97714.22;6110200;23;20010;-92
2021/12/27 02:15:12;;;;;;;35.95;23.20;;;;;;;-0.82;81.14;97756.09;6135074;23;20001;-91
2021/12/27 02:17:39;;;;;;;37.35;22.55;;;;;;;-0.79;81.44;97755.69;6158893;23;20436;-92
2021/12/27 02:20:07;;;;;;;41.75;22.45;;;;;;;-0.99;81.70;97723.47;6138973;23;20147;-92
2021/12/27 02:22:36;;;;;;;36.45;22.98;;;;;;;-1.09;81.38;97700.31;6159843;23;20009;-92
2021/12/27 02:25:07;;;;;;;36.15;22.63;;;;;;;-0.99;81.39;97716.44;6135524;23;20013;-89
2021/12/27 02:27:33;;;;;;;37.30;23.58;;;;;;;-0.70;81.88;97762.34;6184001;23;20001;-92
2021/12/27 02:30:00;;;;;;;39.60;23.52;;;;;;;-0.89;81.34;97735.13;6134572;23;20088;-92
2021/12/27 02:32:25;;;;;;;38.67;24.15;;;;;;;-0.93;81.64;97730.50;6159370;23;20001;-91
2021/12/27 02:34:50;;;;;;;37.22;22.92;;;;;;;-1.01;82.08;97715.03;6159290;23;20007;-92
2021/12/27 02:37:15;;;;;;;32.88;21.67;;;;;;;-0.77;82.12;97746.63;6134550;23;20511;-89
2021/12/27 02:39:44;;;;;;;38.30;23.50;;;;;;;-1.11;81.55;97694.47;6134881;23;20009;-89
2021/12/27 02:42:09;;;;;;;38.00;23.40;;;;;;;-0.96;82.08;97705.53;6159972;23;20005;-93
2021/12/27 02:44:35;;;;;;;37.20;22.33;;;;;;;-1.05;81.72;97691.03;6134701;23;20005;-91
2021/12/27 02:47:00;;;;;;;34.90;22.77;;;;;;;-1.18;81.44;97664.09;6185841;23;20001;-89
2021/12/27 02:49:25;;;;;;;42.78;24.55;;;;;;;-0.80;81.54;97722.63;6159160;23;20487;-89
2021/12/27 02:51:52;;;;;;;41.00;22.73;;;;;;;-0.98;81.79;97691.84;6134425;23;20012;-89
2021/12/27 02:54:18;;;;;;;39.13;22.63;;;;;;;-1.04;81.32;97676.13;6110613;23;20007;-91
2021/12/27 02:56:43;;;;;;;37.42;22.85;;;;;;;-0.71;81.91;97726.66;6159401;23;20005;-89
2021/12/27 02:59:08;;;;;;;41.50;22.90;;;;;;;-1.01;81.75;97673.13;6159253;23;20001;-92
2021/12/27 03:01:34;;;;;;;43.83;24.20;;;;;;;-1.02;81.56;97682.78;6159522;23;20011;-90
2021/12/27 03:03:59;;;;;;;39.40;23.15;;;;;;;-0.80;81.86;97709.53;6158662;23;20013;-91
2021/12/27 03:06:25;;;;;;;40.47;23.25;;;;;;;-0.75;82.06;97720.22;6134197;23;20009;-89
2021/12/27 03:08:51;;;;;;;42.50;25.08;;;;;;;-1.06;82.08;97665.06;6134114;23;20096;-92
2021/12/27 03:11:17;;;;;;;38.70;23.65;;;;;;;-0.89;82.15;97693.25;6134637;23;20009;-91
2021/12/27 03:13:47;;;;;;;38.80;22.77;;;;;;;-0.62;81.90;97727.25;6134432;23;20013;-91
2021/12/27 03:16:17;;;;;;;34.85;22.52;;;;;;;-0.80;81.98;97699.88;6158904;23;20008;-92
2021/12/27 03:18:44;;;;;;;40.45;22.70;;;;;;;-0.97;82.31;97672.53;6158944;23;20085;-91
2021/12/27 03:21:10;;;;;;;35.53;23.60;;;;;;;-0.85;82.60;97685.78;6158749;23;20005;-89
2021/12/27 03:23:37;;;;;;;40.33;22.77;;;;;;;-0.60;81.96;97727.84;6158644;23;20092;-92
2021/12/27 03:26:04;;;;;;;38.80;23.25;;;;;;;-0.82;82.13;97690.59;6134333;23;20019;-91
2021/12/27 03:28:30;;;;;;;43.20;25.10;;;;;;;-0.85;82.60;97673.47;6158479;23;20063;-93
2021/12/27 03:30:57;;;;;;;38.80;23.70;;;;;;;-0.96;82.21;97671.50;6158854;23;20005;-90
2021/12/27 03:33:23;;;;;;;39.03;23.83;;;;;;;-0.87;82.62;97669.47;6183617;23;20033;-92
2021/12/27 03:35:59;;;;;;;43.80;25.95;;;;;;;-0.68;82.33;97707.91;6134664;23;20005;-92
2021/12/27 03:38:26;;;;;;;;;;;;;;;-0.58;82.86;97721.38;6159041;23;20008;-90
2021/12/27 03:40:51;;;;;;;39.88;23.17;;;;;;;-0.86;83.02;97676.31;6159463;23;20324;-91
2021/12/27 03:43:17;;;;;;;39.15;23.25;;;;;;;-0.73;82.16;97696.44;6135814;23;20212;-90
2021/12/27 03:45:42;;;;;;;41.17;24.20;;;;;;;-0.95;82.60;97661.84;6136054;23;20040;-89
2021/12/27 03:48:10;;;;;;;41.38;23.30;;;;;;;-0.89;82.43;97672.28;6160398;23;20004;-91
2021/12/27 03:50:36;;;;;;;38.67;23.25;;;;;;;-0.70;82.31;97693.41;6136254;23;20083;-90
2021/12/27 03:53:02;;;;;;;38.88;24.48;;;;;;;-0.60;82.23;97706.88;6160469;23;20396;-91
2021/12/27 03:55:27;;;;;;;39.25;23.63;;;;;;;-0.82;82.70;97664.41;6160893;23;20008;-90
2021/12/27 03:57:56;;;;;;;36.50;23.52;;;;;;;-0.88;82.58;97663.44;6135832;23;20005;-90
2021/12/27 04:02:52;;;;;;;36.28;23.83;;;;;;;-0.48;82.60;97711.28;6186969;23;20001;-90
2021/12/27 04:05:19;;;;;;;39.17;24.67;;;;;;;-0.48;82.66;97708.66;6160981;23;20005;-92
2021/12/27 04:07:47;;;;;;;39.17;24.02;;;;;;;-0.71;82.42;97669.03;6159884;23;20005;-92
2021/12/27 04:10:13;;;;;;;38.78;23.80;;;;;;;-0.91;82.98;97631.59;6160085;23;20337;-90
2021/12/27 04:12:39;;;;;;;41.40;24.75;;;;;;;-0.53;82.98;97695.38;6160697;23;20001;-90
2021/12/27 04:15:08;;;;;;;39.53;23.85;;;;;;;-0.59;82.67;97682.31;6160959;23;19997;-92
2021/12/27 04:17:34;;;;;;;40.97;24.30;;;;;;;-0.60;82.41;97681.50;6160956;23;20008;-91
2021/12/27 04:19:59;;;;;;;38.67;24.42;;;;;;;-0.81;82.77;97642.47;6160680;23;20437;-91
2021/12/27 04:22:25;;;;;;;40.78;25.48;;;;;;;-0.71;82.49;97650.69;6187019;23;20005;-90
2021/12/27 04:24:51;;;;;;;34.15;23.23;;;;;;;-0.69;82.25;97648.66;6160751;23;20009;-90
2021/12/27 04:27:17;;;;;;;41.72;26.17;;;;;;;-0.59;82.82;97671.81;6160437;23;20097;-91
2021/12/27 04:29:42;;;;;;;41.97;25.73;;;;;;;-0.68;82.98;97646.84;6160765;23;20012;-92
2021/12/27 04:32:08;;;;;;;46.58;23.65;;;;;;;-0.64;82.80;97654.09;6160547;23;20428;-92
2021/12/27 04:34:33;;;;;;;41.17;25.60;;;;;;;-0.64;82.55;97646.25;6160972;23;20001;-90
2021/12/27 04:36:59;;;;;;;48.53;25.33;;;;;;;-0.85;82.33;97617.69;6160354;23;20074;-90
2021/12/27 04:39:24;;;;;;;40.20;23.83;;;;;;;-0.71;82.95;97619.25;6160717;23;20027;-93
2021/12/27 04:41:50;;;;;;;35.55;23.88;;;;;;;-0.55;82.58;97641.56;6135284;23;20016;-90
2021/12/27 04:44:17;;;;;;;40.13;23.67;;;;;;;-0.53;82.38;97656.06;6135082;23;20469;-91
2021/12/27 04:46:42;;;;;;;38.40;24.00;;;;;;;-0.69;82.79;97624.28;6160190;23;19997;-89
2021/12/27 04:49:07;;;;;;;38.70;24.20;;;;;;;-0.60;82.95;97644.81;6135753;23;20056;-90
2021/12/27 04:51:33;;;;;;;45.08;25.90;;;;;;;-0.77;82.90;97609.63;6159751;23;20059;-92
2021/12/27 04:53:58;;;;;;;37.63;23.02;;;;;;;-0.63;82.45;97642.59;6135332;23;20009;-92
2021/12/27 04:56:24;;;;;;;40.45;24.13;;;;;;;-0.48;82.88;97656.25;6160745;23;20005;-91
2021/12/27 04:58:49;;;;;;;38.20;23.25;;;;;;;-0.58;82.72;97636.72;6135676;23;20008;-91
2021/12/27 05:01:15;;;;;;;40.47;24.55;;;;;;;-0.41;82.22;97661.44;6160331;23;20080;-91
2021/12/27 05:03:41;;;;;;;35.88;22.83;;;;;;;-0.70;82.66;97623.50;6160119;23;20004;-89
2021/12/27 05:06:07;;;;;;;41.70;24.85;;;;;;;-0.55;82.74;97641.56;6135580;23;20016;-90
2021/12/27 05:08:33;;;;;;;42.70;25.15;;;;;;;-0.40;82.78;97658.66;6159944;23;20429;-92
2021/12/27 05:10:59;;;;;;;40.47;23.40;;;;;;;-0.43;82.65;97653.00;6159782;23;20008;-89
2021/12/27 05:13:24;;;;;;;35.92;23.00;;;;;;;-0.67;82.19;97607.34;6135600;23;20452;-90
2021/12/27 05:15:49;;;;;;;39.72;23.73;;;;;;;-0.76;82.47;97590.25;6160170;23;20092;-90
2021/12/27 05:18:17;;;;;;;41.90;24.73;;;;;;;-0.35;82.34;97642.28;6159910;23;20005;-90
2021/12/27 05:20:43;;;;;;;34.83;23.08;;;;;;;-0.55;83.24;97618.81;6159781;23;20005;-92
2021/12/27 05:23:08;;;;;;;39.22;23.33;;;;;;;-0.34;82.60;97654.38;6159924;23;20001;-91
2021/12/27 05:25:34;;;;;;;39.72;24.25;;;;;;;-0.47;82.47;97636.91;6159907;23;20001;-90
2021/12/27 05:27:59;;;;;;;34.92;23.35;;;;;;;-0.42;82.60;97634.47;6135505;23;20487;-90
2021/12/27 05:30:25;;;;;;;36.92;23.10;;;;;;;-0.56;82.32;97603.25;6159881;23;20008;-93
2021/12/27 05:32:51;;;;;;;43.08;25.20;;;;;;;-0.70;82.61;97578.97;6159982;23;20001;-91
2021/12/27 05:35:17;;;;;;;37.45;23.98;;;;;;;-0.70;82.85;97581.59;6160051;23;20356;-89
2021/12/27 05:37:43;;;;;;;41.63;24.83;;;;;;;-0.35;82.84;97629.97;6160134;23;20035;-89
2021/12/27 05:40:14;;;;;;;38.72;22.55;;;;;;;-0.48;82.54;97610.91;6160095;23;20011;-90
2021/12/27 05:42:39;;;;;;;40.92;23.63;;;;;;;-0.48;83.26;97606.44;6159405;23;20011;-90
2021/12/27 05:45:06;;;;;;;34.63;22.27;;;;;;;-0.57;82.65;97592.00;6159625;23;20033;-89
2021/12/27 05:47:32;;;;;;;43.08;23.60;;;;;;;-0.62;82.78;97578.72;6135371;23;20013;-91
2021/12/27 05:49:57;;;;;;;37.83;22.90;;;;;;;-0.53;82.93;97590.56;6159654;23;20083;-90
2021/12/27 05:52:23;;;;;;;37.40;24.23;;;;;;;-0.34;82.80;97615.06;6160231;23;20438;-91
2021/12/27 05:54:48;;;;;;;36.25;23.88;;;;;;;-0.28;82.95;97632.56;6160062;23;20012;-89
2021/12/27 05:57:14;;;;;;;38.15;23.23;;;;;;;-0.53;82.86;97593.19;6159505;23;20009;-92
2021/12/27 05:59:46;;;;;;;39.45;24.02;;;;;;;-0.42;82.41;97616.13;6135434;23;20028;-90
2021/12/27 06:02:11;;;;;;;41.20;23.92;;;;;;;-0.64;82.42;97572.06;6135550;23;20009;-91
2021/12/27 06:04:36;;;;;;;39.97;25.05;;;;;;;-0.45;82.74;97600.81;6134639;23;20037;-91
2021/12/27 06:07:02;;;;;;;42.67;24.88;;;;;;;-0.46;82.84;97596.56;6134991;23;20001;-89
2021/12/27 06:09:27;;;;;;;38.35;24.83;;;;;;;-0.23;82.84;97625.69;6134958;23;20012;-93
2021/12/27 06:11:53;;;;;;;34.67;22.35;;;;;;;-0.53;82.40;97582.72;6110766;23;20031;-92
2021/12/27 06:14:20;;;;;;;43.95;25.52;;;;;;;-0.32;83.19;97605.16;6159373;23;20333;-90
2021/12/27 06:16:45;;;;;;;39.58;23.80;;;;;;;-0.49;83.05;97576.03;6159143;23;20013;-89
2021/12/27 06:19:10;;;;;;;38.58;23.60;;;;;;;-0.59;82.62;97565.19;6134773;23;20441;-90
2021/12/27 06:21:37;;;;;;;37.22;22.48;;;;;;;-0.32;82.50;97599.91;6159089;23;20008;-93
2021/12/27 06:24:03;;;;;;;37.10;23.88;;;;;;;-0.74;83.15;97541.06;6185497;23;20064;-90
2021/12/27 06:26:28;;;;;;;41.80;23.63;;;;;;;-0.47;82.46;97579.25;6158862;23;20031;-91
2021/12/27 06:28:53;;;;;;;37.30;23.55;;;;;;;-0.48;83.23;97575.00;6134499;23;20083;-91
2021/12/27 06:31:20;;;;;;;40.35;24.05;;;;;;;-0.44;82.64;97576.22;6134904;23;20005;-92
2021/12/27 06:33:45;;;;;;;38.30;23.50;;;;;;;-0.44;82.97;97573.59;6159263;23;20076;-92
2021/12/27 06:36:10;;;;;;;37.17;22.23;;;;;;;-0.45;82.97;97571.97;6159107;23;20035;-90
2021/12/27 06:38:36;;;;;;;40.60;23.48;;;;;;;-0.47;82.59;97560.91;6158798;23;20388;-92
2021/12/27 06:41:02;;;;;;;38.70;22.38;;;;;;;-0.51;83.36;97553.66;6159092;23;20005;-90
2021/12/27 06:43:30;;;;;;;31.92;20.27;;;;;;;-0.64;82.97;97532.78;6158618;23;20317;-92
2021/12/27 06:45:56;;;;;;;41.33;23.58;;;;;;;-0.40;82.73;97572.16;6134581;23;20314;-89
2021/12/27 06:48:21;;;;;;;37.47;22.73;;;;;;;-0.43;82.60;97567.31;6158900;23;20016;-90
2021/12/27 06:50:46;;;;;;;40.40;22.80;;;;;;;-0.18;83.54;97606.72;6158840;23;20004;-93
2021/12/27 06:53:12;;;;;;;43.50;23.80;;;;;;;-0.30;82.44;97588.22;6134329;23;20429;-91
2021/12/27 06:55:37;;;;;;;41.72;24.27;;;;;;;-0.46;83.19;97553.84;6158738;23;20029;-90
2021/12/27 06:58:03;;;;;;;39.38;23.38;;;;;;;-0.44;82.74;97557.88;6159047;23;20009;-91
2021/12/27 07:00:28;;;;;;;42.38;23.85;;;;;;;-0.28;82.95;97578.31;6158810;23;20436;-92
2021/12/27 07:02:53;;;;;;;40.13;23.63;;;;;;;-0.59;82.93;97525.88;6158935;23;20047;-93
2021/12/27 07:05:19;;;;;;;41.65;23.58;;;;;;;-0.33;83.30;97565.03;6134089;23;20009;-90
2021/12/27 07:07:45;;;;;;;39.78;22.90;;;;;;;-0.46;82.93;97561.72;6159102;23;20425;-92
2021/12/27 07:10:15;;;;;;;36.25;22.60;;;;;;;-0.47;83.27;97547.00;6134208;23;20091;-92
2021/12/27 07:12:41;;;;;;;39.35;24.10;;;;;;;-0.35;82.87;97563.66;6158978;23;20016;-91
2021/12/27 07:15:07;;;;;;;38.67;23.58;;;;;;;-0.27;82.87;97576.50;6159424;23;20005;-92
2021/12/27 07:17:33;;;;;;;36.05;23.15;;;;;;;-0.48;82.81;97543.56;6137433;23;20140;-90
2021/12/27 07:19:58;;;;;;;36.70;22.20;;;;;;;-0.11;83.13;97603.03;6161997;23;20036;-93
2021/12/27 07:22:24;;;;;;;43.33;23.55;;;;;;;-0.13;83.09;97593.75;6161917;23;20004;-92
2021/12/27 07:24:49;;;;;;;37.40;22.30;;;;;;;-0.52;83.48;97533.69;6163797;23;20092;-92
2021/12/27 07:27:14;;;;;;;36.22;22.95;;;;;;;-0.63;83.33;97522.06;6162373;23;20005;-91
2021/12/27 07:29:40;;;;;;;37.42;22.15;;;;;;;-0.31;83.19;97576.13;6161943;23;20044;-90
2021/12/27 07:32:06;;;;;;;39.35;23.05;;;;;;;-0.34;83.23;97566.06;6161769;23;20001;-90
2021/12/27 07:34:32;;;;;;;40.90;23.30;;;;;;;-0.38;82.95;97567.50;6162195;23;20001;-91
2021/12/27 07:36:57;;;;;;;34.63;21.05;;;;;;;-0.27;82.89;97593.06;6162118;23;20083;-92
2021/12/27 07:39:24;;;;;;;35.55;22.40;;;;;;;-0.33;83.66;97572.13;6162303;23;20417;-91
2021/12/27 07:41:49;;;;;;;37.20;20.52;;;;;;;-0.48;83.03;97543.56;6137413;23;20012;-89
2021/12/27 07:44:15;;;;;;;39.10;22.80;;;;;;;-0.29;83.21;97576.72;6161604;23;20113;-89
2021/12/27 07:46:42;;;;;;;32.40;20.70;;;;;;;-0.13;82.83;97602.44;6162301;23;20005;-92
2021/12/27 07:49:09;;;;;;;33.85;20.15;;;;;;;-0.42;83.34;97547.97;6137265;23;20005;-90
2021/12/27 07:51:35;;;;;;;31.65;20.67;;;;;;;-0.39;83.47;97549.34;6162447;23;20024;-92
2021/12/27 07:54:01;;;;;;;33.72;20.63;;;;;;;-0.32;82.97;97558.78;6112775;23;20429;-93
2021/12/27 07:56:26;;;;;;;37.25;22.58;;;;;;;-0.29;83.13;97563.63;6161981;23;20005;-91
2021/12/27 07:58:52;;;;;;;35.35;21.70;;;;;;;-0.45;83.45;97531.84;6162114;23;20052;-90
2021/12/27 08:01:17;;;;;;;35.83;21.60;;;;;;;-0.30;83.30;97553.34;6162075;23;20096;-91
2021/12/27 08:03:42;;;;;;;34.53;19.30;;;;;;;-0.10;83.57;97577.59;6162104;23;20016;-90
2021/12/27 08:06:08;;;;;;;31.63;21.58;;;;;;;-0.42;82.72;97520.97;6137576;23;20016;-90
2021/12/27 08:08:33;;;;;;;36.72;21.17;;;;;;;-0.04;83.59;97579.38;6162259;23;20020;-92
2021/12/27 08:10:59;;;;;;;32.60;20.63;;;;;;;-0.37;83.02;97542.88;6161910;23;20020;-91
2021/12/27 08:13:25;;;;;;;34.03;21.88;;;;;;;-0.08;83.40;97583.44;6188420;23;20421;-92
2021/12/27 08:15:50;;;;;;;35.97;21.70;;;;;;;-0.05;83.14;97601.38;6137523;23;20054;-89
2021/12/27 08:18:15;;;;;;;35.58;21.85;;;;;;;-0.20;82.85;97564.94;6137217;23;20008;-92
2021/12/27 08:20:41;;;;;;;32.85;20.17;;;;;;;-0.22;83.72;97568.81;6162191;23;20341;-91
2021/12/27 08:26:28;;;;;;;36.30;21.33;;;;;;;-0.16;82.88;97568.78;6187621;23;20460;-90
2021/12/27 08:32:34;;;;;;;32.28;19.52;;;;;;;-0.24;83.31;97566.41;6147099;23;20087;-91
2021/12/27 08:35:03;;;;;;;38.72;23.38;;;;;;;-0.41;83.41;97527.78;6160111;23;20001;-91
2021/12/27 08:37:32;;;;;;;35.33;21.17;;;;;;;-0.39;83.72;97520.53;6160558;23;20105;-91
2021/12/27 08:40:01;;;;;;;34.45;21.10;;;;;;;-0.27;83.45;97530.13;6160592;23;20079;-91
2021/12/27 08:42:29;;;;;;;34.45;22.25;;;;;;;0.11;83.38;97592.22;6159864;23;20087;-89
2021/12/27 08:44:58;;;;;;;33.97;21.30;;;;;;;-0.03;83.23;97573.94;6160234;23;20075;-89
2021/12/27 08:47:39;;;;;;;35.55;21.27;;;;;;;-0.31;83.38;97538.63;6160231;23;20001;-92
2021/12/27 08:50:07;;;;;;;38.22;21.23;;;;;;;-0.08;83.07;97573.75;6160185;23;20008;-92
2021/12/27 08:52:33;;;;;;;34.20;20.20;;;;;;;-0.22;83.41;97550.47;6159848;23;20005;-91
2021/12/27 08:55:09;;;;;;;33.95;21.23;;;;;;;-0.30;83.45;97545.47;6160460;23;20055;-89
2021/12/27 08:57:34;;;;;;;34.58;20.90;;;;;;;-0.23;83.65;97551.47;6160075;23;20009;-91
2021/12/27 09:00:01;;;;;;;33.15;20.52;;;;;;;-0.02;83.69;97580.78;6111373;23;20314;-92
2021/12/27 09:02:26;;;;;;;33.95;21.00;;;;;;;-0.32;83.46;97527.34;6159945;23;20522;-92
2021/12/27 09:04:51;;;;;;;31.35;20.13;;;;;;;0.18;83.51;97603.44;6159581;23;20020;-93
2021/12/27 09:07:26;;;;;;;28.15;18.10;;;;;;;-0.05;83.22;97568.09;6159996;23;20079;-92
2021/12/27 09:09:58;;;;;;;40.88;21.50;;;;;;;-0.36;83.91;97525.34;6160370;23;20005;-90
2021/12/27 09:12:24;;;;;;;36.97;20.63;;;;;;;0.18;83.91;97606.88;6135233;23;20004;-92
2021/12/27 09:14:50;;;;;;;30.08;19.50;;;;;;;-0.26;84.02;97536.97;6159346;23;20007;-92
2021/12/27 09:17:17;;;;;;;33.63;18.50;;;;;;;-0.27;83.66;97539.81;6181059;23;20039;-90
2021/12/27 09:19:43;;;;;;;27.50;19.08;;;;;;;-0.28;83.26;97536.38;6160099;23;20055;-91
2021/12/27 09:22:10;;;;;;;30.52;19.55;;;;;;;-0.02;83.68;97580.78;6159663;23;20001;-89
2021/12/27 09:24:36;;;;;;;30.45;19.65;;;;;;;0.05;83.63;97590.41;6159578;23;20005;-91
2021/12/27 09:27:02;;;;;;;30.50;19.85;;;;;;;-0.08;83.69;97568.53;6159966;23;20028;-90
2021/12/27 09:29:28;;;;;;;29.17;18.25;;;;;;;0.17;83.86;97605.28;6159443;23;20441;-91
2021/12/27 09:31:59;;;;;;;28.77;18.52;;;;;;;-0.10;83.07;97560.06;6135561;23;20425;-92
2021/12/27 09:34:34;;;;;;;30.85;19.50;;;;;;;-0.16;83.21;97547.00;6159606;23;20047;-93
2021/12/27 09:36:59;;;;;;;30.15;20.42;;;;;;;-0.27;83.49;97527.50;6159507;23;20013;-91
2021/12/27 09:39:28;;;;;;;27.05;17.10;;;;;;;-0.21;83.42;97531.91;6159816;23;20100;-90
2021/12/27 09:41:53;;;;;;;26.50;17.55;;;;;;;-0.10;83.14;97548.75;6159542;23;20013;-92
2021/12/27 09:44:18;;;;;;;28.30;17.42;;;;;;;0.00;83.42;97559.59;6159445;23;20083;-91
2021/12/27 09:46:45;;;;;;;28.20;17.40;;;;;;;0.11;83.28;97581.72;6135489;23;20425;-91
2021/12/27 09:49:14;;;;;;;26.33;16.73;;;;;;;-0.04;83.39;97551.34;6159486;23;20040;-91
2021/12/27 09:51:40;;;;;;;22.90;16.90;;;;;;;0.12;83.60;97578.06;6159569;23;20009;-92
2021/12/27 09:54:07;;;;;;;24.25;16.75;;;;;;;0.14;83.72;97584.69;6157913;23;20060;-91
2021/12/27 09:56:45;;;;;;;23.83;15.85;;;;;;;0.15;83.39;97585.50;6159606;23;20005;-90
2021/12/27 09:59:10;;;;;;;25.65;16.92;;;;;;;0.10;83.77;97569.59;6135330;23;20009;-92
2021/12/27 10:01:35;;;;;;;27.55;15.93;;;;;;;0.02;83.85;97549.69;6160109;23;20088;-92
2021/12/27 10:04:01;;;;;;;27.58;17.42;;;;;;;0.28;83.79;97586.22;6159872;23;20005;-91
2021/12/27 10:06:28;;;;;;;26.70;16.15;;;;;;;-0.11;83.34;97524.34;6159444;23;20009;-92
2021/12/27 10:08:56;;;;;;;28.80;17.80;;;;;;;0.15;83.89;97549.59;6134971;23;20005;-93
2021/12/27 10:11:27;;;;;;;25.50;15.93;;;;;;;0.14;83.61;97547.97;6159713;23;20009;-91
2021/12/27 10:14:15;;;;;;;26.20;16.88;;;;;;;0.29;83.49;97576.50;6159635;23;20028;-91
2021/12/27 10:16:59;;;;;;;24.50;15.70;;;;;;;0.34;83.33;97568.81;6155693;23;20013;-92
2021/12/27 10:19:25;;;;;;;26.30;16.60;;;;;;;0.08;83.95;97527.06;6159666;23;20004;-92
2021/12/27 10:21:52;;;;;;;27.27;16.27;;;;;;;0.17;83.57;97529.19;6159524;23;20001;-89
2021/12/27 10:24:28;;;;;;;25.00;15.40;;;;;;;0.34;83.72;97546.00;6134860;23;20008;-90
2021/12/27 10:27:09;;;;;;;;;;;;;;;0.35;84.02;97549.44;6159561;23;20440;-92
2021/12/27 10:29:39;;;;;;;34.33;16.50;;;;;;;-0.15;83.59;97473.38;6159354;23;19978;-91
2021/12/27 10:32:13;;;;;;;25.95;17.10;;;;;;;0.24;84.26;97531.75;6134765;23;20005;-93
2021/12/27 10:35:33;;;;;;;25.45;15.35;;;;;;;0.27;83.69;97533.94;6134883;23;20028;-90
2021/12/27 10:38:28;;;;;;;21.65;13.75;;;;;;;0.40;83.54;97541.69;6184158;23;20036;-91
2021/12/27 10:41:09;;;;;;;23.83;15.65;;;;;;;0.28;84.02;97528.50;6159222;23;20012;-90
2021/12/27 10:43:42;;;;;;;23.00;13.68;;;;;;;0.45;84.29;97542.66;6159153;23;20005;-91
2021/12/27 10:46:13;;;;;;;28.95;15.25;;;;;;;0.32;83.93;97513.13;6159282;23;20005;-91
2021/12/27 10:48:43;;;;;;;26.05;15.80;;;;;;;0.06;84.06;97458.28;6159222;23;20008;-92
2021/12/27 10:51:13;;;;;;;24.63;15.85;;;;;;;0.29;83.67;97489.91;6158467;23;20005;-91
2021/12/27 10:54:08;;;;;;;24.73;15.50;;;;;;;0.04;83.88;97458.50;6159167;23;20009;-92
2021/12/27 10:57:02;;;;;;;25.83;15.98;;;;;;;0.60;84.26;97523.94;6159633;23;20005;-91
2021/12/27 10:59:28;;;;;;;27.88;16.17;;;;;;;0.27;83.64;97478.84;6158386;23;20075;-91
2021/12/27 11:01:54;;;;;;;23.60;14.40;;;;;;;0.42;84.13;97501.09;6159367;23;20396;-90
2021/12/27 11:04:19;;;;;;;24.58;15.90;;;;;;;0.41;83.78;97494.25;6134359;23;20432;-91
2021/12/27 11:06:45;;;;;;;24.33;14.57;;;;;;;0.43;83.80;97504.53;6158689;23;20012;-90
2021/12/27 11:09:14;;;;;;;24.77;14.98;;;;;;;0.24;84.01;97472.19;6159174;23;20567;-91
2021/12/27 11:12:01;;;;;;;24.15;15.73;;;;;;;0.31;83.74;97477.38;6151917;23;20436;-91
2021/12/27 11:14:27;;;;;;;27.40;15.40;;;;;;;0.33;83.73;97470.13;6116084;23;20005;-90
2021/12/27 11:16:58;;;;;;;25.00;15.13;;;;;;;0.49;83.96;97495.78;6159115;23;20016;-91
2021/12/27 11:19:23;;;;;;;24.35;13.77;;;;;;;0.54;83.66;97490.69;6134744;23;20005;-92
2021/12/27 11:21:49;;;;;;;25.52;16.38;;;;;;;0.34;83.48;97463.84;6159205;23;20063;-91
2021/12/27 11:24:16;;;;;;;24.63;14.98;;;;;;;0.33;83.97;97462.25;6158935;23;20009;-92
2021/12/27 11:26:45;;;;;;;23.17;14.70;;;;;;;0.51;83.29;97478.81;6134597;23;20012;-91
2021/12/27 11:29:16;;;;;;;27.73;15.85;;;;;;;0.86;83.63;97530.72;6158953;23;20076;-92
2021/12/27 11:32:30;;;;;;;28.25;16.67;;;;;;;0.36;83.71;97448.69;6159440;23;20031;-91